• Join FlightAware (Why Join?)
  • Login
  • US Flag 
05:11AM EDT


 

Airport Tracker/Info


-or-


 

Live Flight TrackerFlight Track Log ✈ EJA951 ✈ 15-May-2013 ✈ KLUK - KAPF

Flight Track Log - Related Links

Times and Time Zones

All times are in EDT time to prevent confusion due to time zone crossing. See the EJA951 flight status page for this flight to view local times or setup timezone preferences in your user account.

Time Position Orientation Groundspeed Altitude Reporting Facility
EDT Latitude Longitude Course Direction KTS MPH feet Rate Location/Type
02:39PM 39.0833 -84.4167 201° Southwest 162 186 1,500  Level Cincinnati TRACON
02:40PM 39.0167 -84.4500 201° Southwest 210 242 5,200 2,040 Climbing Cincinnati TRACON
02:42PM 38.8925 -84.4814 191° South 266 306 8,000 960 Climbing Indianapolis Center
02:43PM 38.8189 -84.5008 192° South 267 307 8,000 1,200 Level Indianapolis Center
02:44PM 38.7444 -84.5247 194° South 272 313 10,600 1,740 Climbing Indianapolis Center
02:45PM 38.6633 -84.5514 194° South 307 353 11,600 1,440 Climbing Indianapolis Center
02:46PM 38.5447 -84.5417 176° South 368 423 13,600 1,980 Climbing Indianapolis Center
02:47PM 38.4406 -84.5336 177° South 373 429 15,800 1,800 Climbing Indianapolis Center
02:48PM 38.3347 -84.5311 179° South 378 435 17,400 1,500 Climbing Indianapolis Center
02:49PM 38.2242 -84.5286 179° South 392 451 18,900 1,560 Climbing Indianapolis Center
02:50PM 38.0914 -84.5253 179° South 407 468 20,700 1,620 Climbing Indianapolis Center
02:51PM 37.9744 -84.5219 179° South 420 483 22,300 1,500 Climbing Indianapolis Center
02:52PM 37.8536 -84.5186 179° South 429 494 23,900 1,560 Climbing Indianapolis Center
02:53PM 37.7267 -84.5172 180° South 451 519 25,600 1,740 Climbing Indianapolis Center
02:54PM 37.6003 -84.5156 179° South 455 524 27,500 1,980 Climbing Indianapolis Center
02:55PM 37.4525 -84.5114 179° South 455 524 29,700 1,980 Climbing Indianapolis Center
02:56PM 37.3247 -84.5081 179° South 459 528 31,600 1,740 Climbing Indianapolis Center
02:57PM 37.1936 -84.5053 179° South 467 537 33,300 1,680 Climbing Indianapolis Center
02:58PM 37.0614 -84.5028 179° South 474 545 35,100 1,260 Climbing Indianapolis Center
02:59PM 36.9264 -84.4994 179° South 483 556 36,000 420 Climbing Indianapolis Center
03:00PM 36.7594 -84.4958 179° South 511 588 36,000 120 Level Indianapolis Center
03:01PM 36.6128 -84.4936 179° South 526 605 36,300 960 Climbing Indianapolis Center
03:02PM 36.4764 -84.4900 179° South 516 594 38,100 1,980 Climbing Indianapolis Center
03:03PM 36.3433 -84.4872 179° South 510 587 40,100 1,500 Climbing Atlanta Center
03:04PM 36.2222 -84.4839 179° South 500 575 41,000 420 Climbing Atlanta Center
03:05PM 36.0825 -84.4806 179° South 494 568 41,000  Level Atlanta Center
03:06PM 35.9428 -84.4800 180° South 494 568 41,000  Level Atlanta Center
03:07PM 35.8008 -84.4767 179° South 500 575 41,000  Level Atlanta Center
03:08PM 35.6569 -84.4733 179° South 505 581 41,000  Level Atlanta Center
03:09PM 35.5153 -84.4700 179° South 511 588 41,000  Level Atlanta Center
03:10PM 35.3733 -84.4667 179° South 511 588 41,000  Level Atlanta Center
03:11PM 35.2314 -84.4658 180° South 511 588 41,000  Level Atlanta Center
03:12PM 35.0894 -84.4628 179° South 511 588 41,000  Level Atlanta Center
03:13PM 34.9497 -84.4594 179° South 516 594 41,000  Level Atlanta Center
03:14PM 34.7953 -84.4536 178° South 510 587 41,000  Level Atlanta Center
03:15PM 34.6492 -84.4528 180° South 510 587 41,000  Level Atlanta Center
03:16PM 34.5072 -84.4497 179° South 517 595 41,000  Level Atlanta Center
03:17PM 34.3633 -84.4464 179° South 512 589 41,000  Level Atlanta Center
03:18PM 34.2172 -84.4433 179° South 517 595 41,000  Level Atlanta Center
03:19PM 34.0669 -84.4425 180° South 528 608 41,000  Level Atlanta Center
03:20PM 33.9147 -84.4394 179° South 537 618 41,000  Level Atlanta Center
03:21PM 33.7728 -84.4361 179° South 530 610 41,000  Level Atlanta Center
03:22PM 33.6267 -84.4331 179° South 530 610 41,000  Level Atlanta Center
03:23PM 33.4783 -84.4297 179° South 538 619 41,000  Level Atlanta Center
03:24PM 33.3322 -84.4292 180° South 530 610 41,000  Level Atlanta Center
03:25PM 33.1883 -84.4261 179° South 525 604 41,000  Level Atlanta Center
03:26PM 33.0403 -84.4206 178° South 525 604 41,000  Level Atlanta Center
03:27PM 32.8942 -84.4197 180° South 531 611 41,000  Level Atlanta Center
03:28PM 32.7481 -84.4192 180° South 536 617 41,000  Level Atlanta Center
03:29PM 32.5997 -84.4161 179° South 531 611 41,000  Level Atlanta Center
03:30PM 32.4536 -84.4131 179° South 531 611 41,000  Level Atlanta Center
03:31PM 32.3075 -84.4075 178° South 531 611 41,000  Level Atlanta Center
03:32PM 32.1594 -84.4069 180° South 531 611 41,000  Level Atlanta Center
03:33PM 32.0092 -84.4039 179° South 531 611 41,000  Level Atlanta Center
03:34PM 31.8694 -84.3994 178° South 513 590 41,000  Level Jacksonville Center
03:35PM 31.7233 -84.3994 180° South 508 585 41,000  Level Jacksonville Center
03:36PM 31.5731 -84.3947 178° South 521 600 41,000  Level Jacksonville Center
03:37PM 31.4247 -84.3922 179° South 533 613 41,000  Level Jacksonville Center
03:38PM 31.2767 -84.3875 178° South 533 613 41,000  Level Jacksonville Center
03:39PM 31.1283 -84.3875 180° South 533 613 41,000  Level Jacksonville Center
03:40PM 30.9783 -84.3611 171° South 538 619 41,000  Level Jacksonville Center
03:41PM 30.8372 -84.2886 156° South 538 619 41,000  Level Jacksonville Center
03:42PM 30.6981 -84.2164 156° South 543 625 41,000  Level Jacksonville Center
03:43PM 30.5569 -84.1447 156° South 550 633 41,000  Level Jacksonville Center
03:44PM 30.4197 -84.0753 156° South 545 627 41,000  Level Jacksonville Center
03:45PM 30.2806 -84.0039 156° South 550 633 41,000  Level Jacksonville Center
03:46PM 30.1369 -83.9325 157° South 557 641 41,000  Level Jacksonville Center
03:47PM 29.9956 -83.8614 156° South 557 641 41,000  Level Jacksonville Center
03:48PM 29.8561 -83.7906 156° South 557 641 41,000  Level Jacksonville Center
03:49PM 29.7147 -83.7200 157° South 551 634 41,000  Level Jacksonville Center
03:50PM 29.5733 -83.6494 157° South 556 640 41,000  Level Jacksonville Center
03:51PM 29.4317 -83.5792 157° South 556 640 41,000  Level Jacksonville Center
03:52PM 29.3025 -83.5142 156° South 561 646 41,000  Level Jacksonville Center
03:53PM 29.1589 -83.4419 156° South 561 646 41,000  Level Jacksonville Center
03:54PM 29.0150 -83.3722 157° South 561 646 41,000 -540 Level Jacksonville Center
03:55PM 28.8711 -83.3408 169° South 551 634 40,000 -1,320 Descending Jacksonville Center
03:56PM 28.7231 -83.3425 181° South 528 608 38,400 -1,560 Descending Jacksonville Center
03:58PM 28.3642 -83.3572 182° South 539 620 34,900 -1,080 Descending Miami Center
03:59PM 28.2322 -83.3686 184° South 539 620 35,000  Climbing Miami Center
04:00PM 28.0797 -83.3739 182° South 539 620 35,000  Level Miami Center
04:01PM 27.9300 -83.3653 177° South 539 620 35,000  Level Miami Center
04:02PM 27.7872 -83.2936 156° South 539 620 35,000 -240 Level Miami Center
04:03PM 27.6606 -83.1906 144° Southeast 538 619 34,600 -1,680 Descending Miami Center
04:04PM 27.5294 -83.0872 145° Southeast 560 644 31,700 -3,000 Descending Miami Center
04:05PM 27.4003 -82.9822 144° Southeast 575 662 28,700 -3,000 Descending Miami Center
04:06PM 27.2772 -82.8844 145° Southeast 575 662 25,800 -2,820 Descending Miami Center
04:07PM 27.1619 -82.7922 145° Southeast 541 623 23,100 -2,700 Descending Miami Center
04:08PM 27.0489 -82.7025 145° Southeast 512 589 20,500 -2,580 Descending Miami Center
04:09PM 26.9417 -82.6181 145° Southeast 495 570 18,000 -2,400 Descending Miami Center
04:10PM 26.8406 -82.5364 144° Southeast 471 542 15,700 -2,280 Descending Miami Center
04:11PM 26.7453 -82.4619 145° Southeast 445 512 13,500 -2,280 Descending Miami Center
04:12PM 26.6522 -82.3878 145° Southeast 422 486 11,200 -1,320 Descending Miami Center
04:13PM 26.5567 -82.3183 147° Southeast 417 480 10,900 -600 Descending Miami Center
04:14PM 26.4794 -82.2614 147° Southeast 381 438 10,100 -1,200 Descending Miami Center
04:15PM 26.4122 -82.2167 149° Southeast 325 374 8,500 -1,560 Descending Miami Center
04:16PM 26.3472 -82.1672 146° Southeast 292 336 7,000 -780 Descending Miami Center
04:17PM 26.2864 -82.1206 145° Southeast 280 322 7,000 -360 Level Miami Center
04:18PM 26.2361 -82.0653 135° Southeast 266 306 6,300 -1,020 Descending Miami Center
04:19PM 26.2431 -81.9892 84° East 222 255 5,000 -1,320 Descending Miami Center
04:21PM 26.1845 -81.8511 149° Southeast  Level Estimated
04:28PM 26.1524 -81.7756 66° East  Level Estimated
04:29PM 26.1524 -81.7756 66° East  Level Estimated
04:30PM 26.1524 -81.7756 66° East  Level Estimated
04:31PM 26.1524 -81.7756 66° East  Level Estimated
04:32PM 26.1524 -81.7756 66° East  Level Estimated
04:33PM 26.1524 -81.7756 66° East  Level Estimated
04:34PM 26.1524 -81.7756 66° East  Level Estimated
04:35PM 26.1524 -81.7756 66° East  Level Estimated
04:36PM 26.1524 -81.7756 66° East  Level Estimated